Monmouth, Oregon
Current Conditions -  °F | °C
As of 3:56 PM on Friday 21 Nov 2014 (Local Time) from KSLE Reporting Station
Light Rain Light Rain  
Wind Chill: 54°   Ceiling: 1400
Heat Index: 54°   Visibility: 5mi
Dew Point: 50°   Wind: 26mph
Humidity: 86%   Direction: 180°S
Pressure: 29.51"   Gusts: 40mph
Location:  44.85°N, 123.23°W
Report Text: KSLE 212356Z 18023G35KT 5SM -RA BR BKN014 BKN034 OVC041 12/10 A2951 RMK AO2 PK WND 18037/2339 SLP994 P0003 60021 T01220100 10122 20106 56039
Loading
Personal Weather Stations






























Interactive Weather Map New forecast layout! Learn more

10-Day Weather Forecast

Advertisements
Track Severe Weather on mobile